sensor_id;sensor_type;location;lat;lon;timestamp;pressure;altitude;pressure_sealevel;temperature;humidity
48244;BME280;34053;51.088;6.572;2023-03-12T00:00:24;100629.97;;;3.83;60.44
48244;BME280;34053;51.088;6.572;2023-03-12T00:02:55;100634.28;;;3.84;60.69
48244;BME280;34053;51.088;6.572;2023-03-12T00:05:26;100625.63;;;3.82;60.74
48244;BME280;34053;51.088;6.572;2023-03-12T00:07:56;100623.00;;;3.85;61.05
48244;BME280;34053;51.088;6.572;2023-03-12T00:10:29;100612.66;;;3.82;60.91
48244;BME280;34053;51.088;6.572;2023-03-12T00:13:00;100615.22;;;3.83;60.74
48244;BME280;34053;51.088;6.572;2023-03-12T00:15:30;100613.50;;;3.85;60.27
48244;BME280;34053;51.088;6.572;2023-03-12T00:18:01;100614.38;;;3.83;60.33
48244;BME280;34053;51.088;6.572;2023-03-12T00:20:31;100619.56;;;3.83;60.06
48244;BME280;34053;51.088;6.572;2023-03-12T00:23:02;100616.09;;;3.81;60.87
48244;BME280;34053;51.088;6.572;2023-03-12T00:25:32;100612.66;;;3.75;59.87
48244;BME280;34053;51.088;6.572;2023-03-12T00:28:03;100611.75;;;3.81;60.52
48244;BME280;34053;51.088;6.572;2023-03-12T00:30:33;100612.63;;;3.85;60.97
48244;BME280;34053;51.088;6.572;2023-03-12T00:33:04;100616.94;;;3.86;60.72
48244;BME280;34053;51.088;6.572;2023-03-12T00:35:36;100616.94;;;3.86;60.89
48244;BME280;34053;51.088;6.572;2023-03-12T00:38:07;100610.06;;;3.86;60.48
48244;BME280;34053;51.088;6.572;2023-03-12T00:40:38;100606.59;;;3.89;60.94
48244;BME280;34053;51.088;6.572;2023-03-12T00:43:08;100598.78;;;3.89;60.69
48244;BME280;34053;51.088;6.572;2023-03-12T00:45:39;100598.78;;;3.89;60.33
48244;BME280;34053;51.088;6.572;2023-03-12T00:48:09;100592.75;;;3.90;60.76
48244;BME280;34053;51.088;6.572;2023-03-12T00:50:40;100591.88;;;3.88;60.32
48244;BME280;34053;51.088;6.572;2023-03-12T00:53:10;100593.59;;;3.95;60.75
48244;BME280;34053;51.088;6.572;2023-03-12T00:55:40;100592.72;;;3.94;61.28
48244;BME280;34053;51.088;6.572;2023-03-12T00:58:11;100590.13;;;3.87;60.79
48244;BME280;34053;51.088;6.572;2023-03-12T01:00:41;100587.53;;;3.90;60.63
48244;BME280;34053;51.088;6.572;2023-03-12T01:03:12;100588.41;;;3.87;61.32
48244;BME280;34053;51.088;6.572;2023-03-12T01:05:43;100583.19;;;3.95;60.93
48244;BME280;34053;51.088;6.572;2023-03-12T01:08:13;100587.53;;;3.93;60.80
48244;BME280;34053;51.088;6.572;2023-03-12T01:10:44;100583.22;;;3.97;59.97
48244;BME280;34053;51.088;6.572;2023-03-12T01:13:14;100578.88;;;3.94;60.97
48244;BME280;34053;51.088;6.572;2023-03-12T01:15:45;100570.25;;;3.92;60.59
48244;BME280;34053;51.088;6.572;2023-03-12T01:18:15;100564.19;;;3.94;60.63
48244;BME280;34053;51.088;6.572;2023-03-12T01:20:46;100572.84;;;3.92;60.54
48244;BME280;34053;51.088;6.572;2023-03-12T01:23:16;100565.88;;;3.94;60.20
48244;BME280;34053;51.088;6.572;2023-03-12T01:25:47;100557.28;;;3.92;60.16
48244;BME280;34053;51.088;6.572;2023-03-12T01:28:18;100559.00;;;3.88;60.69
48244;BME280;34053;51.088;6.572;2023-03-12T01:30:49;100558.09;;;3.94;60.95
48244;BME280;34053;51.088;6.572;2023-03-12T01:33:19;100556.38;;;3.96;60.54
48244;BME280;34053;51.088;6.572;2023-03-12T01:35:51;100562.47;;;3.92;60.29
48244;BME280;34053;51.088;6.572;2023-03-12T01:38:22;100553.78;;;3.93;60.90
48244;BME280;34053;51.088;6.572;2023-03-12T01:40:52;100532.16;;;3.94;60.89
48244;BME280;34053;51.088;6.572;2023-03-12T01:43:35;100533.03;;;3.90;60.15
48244;BME280;34053;51.088;6.572;2023-03-12T01:49:00;100529.53;;;3.94;60.62
48244;BME280;34053;51.088;6.572;2023-03-12T01:54:17;100522.63;;;3.96;60.67
48244;BME280;34053;51.088;6.572;2023-03-12T01:56:49;100513.97;;;3.94;60.68
48244;BME280;34053;51.088;6.572;2023-03-12T01:59:38;100523.50;;;3.98;60.58
48244;BME280;34053;51.088;6.572;2023-03-12T02:02:11;100516.56;;;3.99;60.69
48244;BME280;34053;51.088;6.572;2023-03-12T02:04:43;100510.50;;;3.95;60.26
48244;BME280;34053;51.088;6.572;2023-03-12T02:07:15;100514.88;;;3.90;60.68
48244;BME280;34053;51.088;6.572;2023-03-12T02:09:47;100514.81;;;3.98;61.27
48244;BME280;34053;51.088;6.572;2023-03-12T02:12:18;100512.25;;;3.96;60.85
48244;BME280;34053;51.088;6.572;2023-03-12T02:14:49;100505.31;;;3.98;60.86
48244;BME280;34053;51.088;6.572;2023-03-12T02:17:19;100505.31;;;3.98;60.37
48244;BME280;34053;51.088;6.572;2023-03-12T02:20:00;100507.06;;;3.99;60.90
48244;BME280;34053;51.088;6.572;2023-03-12T02:22:41;100507.91;;;3.95;60.56
48244;BME280;34053;51.088;6.572;2023-03-12T02:28:02;100501.84;;;3.98;60.51
48244;BME280;34053;51.088;6.572;2023-03-12T02:30:34;100500.13;;;3.95;60.93
48244;BME280;34053;51.088;6.572;2023-03-12T02:33:06;100500.16;;;3.92;60.78
48244;BME280;34053;51.088;6.572;2023-03-12T02:35:37;100497.53;;;3.90;61.08
48244;BME280;34053;51.088;6.572;2023-03-12T02:38:50;100497.53;;;3.97;61.18
48244;BME280;34053;51.088;6.572;2023-03-12T02:41:22;100504.47;;;3.94;61.42
48244;BME280;34053;51.088;6.572;2023-03-12T02:46:43;100491.50;;;3.90;61.65
48244;BME280;34053;51.088;6.572;2023-03-12T02:49:17;100482.84;;;3.91;61.26
48244;BME280;34053;51.088;6.572;2023-03-12T02:51:48;100477.63;;;3.94;61.87
48244;BME280;34053;51.088;6.572;2023-03-12T02:54:20;100485.44;;;3.96;61.65
48244;BME280;34053;51.088;6.572;2023-03-12T02:56:51;100477.66;;;3.96;62.10
48244;BME280;34053;51.088;6.572;2023-03-12T02:59:22;100473.31;;;3.94;61.85
48244;BME280;34053;51.088;6.572;2023-03-12T03:01:57;100467.25;;;3.94;61.64
48244;BME280;34053;51.088;6.572;2023-03-12T03:04:29;100461.19;;;3.98;62.18
48244;BME280;34053;51.088;6.572;2023-03-12T03:07:00;100467.25;;;3.94;62.04
48244;BME280;34053;51.088;6.572;2023-03-12T03:09:30;100463.78;;;3.98;62.35
48244;BME280;34053;51.088;6.572;2023-03-12T03:12:01;100456.88;;;3.94;62.36
48244;BME280;34053;51.088;6.572;2023-03-12T03:14:31;100452.53;;;3.99;62.23
48244;BME280;34053;51.088;6.572;2023-03-12T03:17:02;100464.63;;;4.06;62.15
48244;BME280;34053;51.088;6.572;2023-03-12T03:19:32;100458.59;;;3.98;62.51
48244;BME280;34053;51.088;6.572;2023-03-12T03:22:03;100472.41;;;4.05;62.15
48244;BME280;34053;51.088;6.572;2023-03-12T03:24:33;100466.38;;;3.98;62.29
48244;BME280;34053;51.088;6.572;2023-03-12T03:27:05;100455.13;;;4.01;61.72
48244;BME280;34053;51.088;6.572;2023-03-12T03:29:35;100462.03;;;4.03;62.15
48244;BME280;34053;51.088;6.572;2023-03-12T03:32:06;100453.50;;;3.61;61.40
48244;BME280;34053;51.088;6.572;2023-03-12T03:34:36;100459.50;;;3.86;62.02
48244;BME280;34053;51.088;6.572;2023-03-12T03:37:08;100455.13;;;3.96;62.08
48244;BME280;34053;51.088;6.572;2023-03-12T03:39:39;100462.06;;;4.00;62.01
48244;BME280;34053;51.088;6.572;2023-03-12T03:42:09;100458.56;;;4.03;62.07
48244;BME280;34053;51.088;6.572;2023-03-12T03:44:40;100448.16;;;4.04;61.80
48244;BME280;34053;51.088;6.572;2023-03-12T03:47:10;100460.28;;;4.08;61.86
48244;BME280;34053;51.088;6.572;2023-03-12T03:49:40;100454.22;;;4.08;62.05
48244;BME280;34053;51.088;6.572;2023-03-12T03:52:11;100449.91;;;4.04;62.12
48244;BME280;34053;51.088;6.572;2023-03-12T03:54:41;100459.53;;;3.72;62.00
48244;BME280;34053;51.088;6.572;2023-03-12T03:57:12;100456.91;;;3.88;62.26
48244;BME280;34053;51.088;6.572;2023-03-12T03:59:43;100458.59;;;3.95;62.33
48244;BME280;34053;51.088;6.572;2023-03-12T04:02:13;100460.31;;;3.96;62.10
48244;BME280;34053;51.088;6.572;2023-03-12T04:04:44;100458.56;;;4.01;61.84
48244;BME280;34053;51.088;6.572;2023-03-12T04:07:14;100464.63;;;4.02;62.35
48244;BME280;34053;51.088;6.572;2023-03-12T04:09:45;100453.38;;;4.01;62.18
48244;BME280;34053;51.088;6.572;2023-03-12T04:12:16;100446.47;;;3.97;62.52
48244;BME280;34053;51.088;6.572;2023-03-12T04:14:46;100446.47;;;3.97;62.70
48244;BME280;34053;51.088;6.572;2023-03-12T04:17:17;100449.09;;;3.92;62.92
48244;BME280;34053;51.088;6.572;2023-03-12T04:19:48;100455.13;;;3.99;62.22
48244;BME280;34053;51.088;6.572;2023-03-12T04:22:18;100449.09;;;3.91;61.64
48244;BME280;34053;51.088;6.572;2023-03-12T04:24:49;100446.50;;;3.91;62.27
48244;BME280;34053;51.088;6.572;2023-03-12T04:27:19;100446.50;;;3.88;62.93
48244;BME280;34053;51.088;6.572;2023-03-12T04:29:50;100443.91;;;3.85;62.20
48244;BME280;34053;51.088;6.572;2023-03-12T04:32:20;100444.81;;;3.84;62.54
48244;BME280;34053;51.088;6.572;2023-03-12T04:34:51;100437.84;;;3.92;62.30
48244;BME280;34053;51.088;6.572;2023-03-12T04:37:21;100434.38;;;3.94;62.78
48244;BME280;34053;51.088;6.572;2023-03-12T04:39:51;100433.53;;;3.83;63.41
48244;BME280;34053;51.088;6.572;2023-03-12T04:42:22;100429.16;;;3.96;63.29
48244;BME280;34053;51.088;6.572;2023-03-12T04:44:52;100430.06;;;3.97;63.21
48244;BME280;34053;51.088;6.572;2023-03-12T04:47:23;100427.44;;;3.98;63.24
48244;BME280;34053;51.088;6.572;2023-03-12T04:49:53;100420.53;;;3.94;63.41
48244;BME280;34053;51.088;6.572;2023-03-12T04:52:24;100417.09;;;3.87;64.18
48244;BME280;34053;51.088;6.572;2023-03-12T04:54:56;100407.53;;;3.94;63.36
48244;BME280;34053;51.088;6.572;2023-03-12T04:57:28;100404.03;;;4.04;63.21
48244;BME280;34053;51.088;6.572;2023-03-12T04:59:59;100395.38;;;4.02;63.72
48244;BME280;34053;51.088;6.572;2023-03-12T05:02:29;100394.59;;;3.91;64.61
48244;BME280;34053;51.088;6.572;2023-03-12T05:04:59;100378.97;;;4.00;63.92
48244;BME280;34053;51.088;6.572;2023-03-12T05:07:30;100381.56;;;4.02;64.44
48244;BME280;34053;51.088;6.572;2023-03-12T05:10:00;100372.09;;;3.87;65.25
48244;BME280;34053;51.088;6.572;2023-03-12T05:12:31;100385.88;;;4.04;64.90
48244;BME280;34053;51.088;6.572;2023-03-12T05:15:01;100378.97;;;3.94;65.98
48244;BME280;34053;51.088;6.572;2023-03-12T05:17:32;100367.75;;;3.97;65.59
48244;BME280;34053;51.088;6.572;2023-03-12T05:20:03;100362.59;;;3.92;66.54
48244;BME280;34053;51.088;6.572;2023-03-12T05:22:37;100356.56;;;3.81;67.92
48244;BME280;34053;51.088;6.572;2023-03-12T05:25:07;100364.34;;;3.82;68.73
48244;BME280;34053;51.088;6.572;2023-03-12T05:27:38;100359.13;;;3.88;67.68
48244;BME280;34053;51.088;6.572;2023-03-12T05:30:09;100383.38;;;3.87;68.37
48244;BME280;34053;51.088;6.572;2023-03-12T05:32:40;100373.78;;;3.97;68.02
48244;BME280;34053;51.088;6.572;2023-03-12T05:35:10;100377.25;;;3.96;67.59
48244;BME280;34053;51.088;6.572;2023-03-12T05:37:41;100368.75;;;3.71;70.07
48244;BME280;34053;51.088;6.572;2023-03-12T05:40:12;100355.75;;;3.71;71.42
48244;BME280;34053;51.088;6.572;2023-03-12T05:42:43;100351.38;;;3.84;70.78
48244;BME280;34053;51.088;6.572;2023-03-12T05:45:13;100360.00;;;3.87;71.23
48244;BME280;34053;51.088;6.572;2023-03-12T05:47:44;100356.47;;;3.99;68.04
48244;BME280;34053;51.088;6.572;2023-03-12T05:50:15;100350.44;;;3.97;70.02
48244;BME280;34053;51.088;6.572;2023-03-12T05:52:45;100335.72;;;3.99;69.57
48244;BME280;34053;51.088;6.572;2023-03-12T05:55:16;100333.94;;;4.07;68.65
48244;BME280;34053;51.088;6.572;2023-03-12T05:57:47;100325.22;;;4.12;68.21
48244;BME280;34053;51.088;6.572;2023-03-12T06:00:18;100326.97;;;4.13;68.29
48244;BME280;34053;51.088;6.572;2023-03-12T06:02:49;100329.56;;;4.11;68.55
48244;BME280;34053;51.088;6.572;2023-03-12T06:05:19;100325.16;;;4.21;67.65
48244;BME280;34053;51.088;6.572;2023-03-12T06:07:50;100316.63;;;4.06;68.77
48244;BME280;34053;51.088;6.572;2023-03-12T06:10:20;100318.34;;;4.04;69.23
48244;BME280;34053;51.088;6.572;2023-03-12T06:12:51;100321.06;;;3.89;71.87
48244;BME280;34053;51.088;6.572;2023-03-12T06:15:24;100314.06;;;3.99;70.14
48244;BME280;34053;51.088;6.572;2023-03-12T06:17:54;100314.03;;;4.06;70.68
48244;BME280;34053;51.088;6.572;2023-03-12T06:20:25;100311.44;;;4.06;70.35
48244;BME280;34053;51.088;6.572;2023-03-12T06:22:55;100305.38;;;4.04;70.30
48244;BME280;34053;51.088;6.572;2023-03-12T06:25:26;100304.50;;;4.05;69.39
48244;BME280;34053;51.088;6.572;2023-03-12T06:27:56;100311.38;;;4.09;69.43
48244;BME280;34053;51.088;6.572;2023-03-12T06:30:27;100306.19;;;4.09;69.47
48244;BME280;34053;51.088;6.572;2023-03-12T06:32:57;100314.81;;;4.16;68.74
48244;BME280;34053;51.088;6.572;2023-03-12T06:35:28;100307.91;;;4.14;69.55
48244;BME280;34053;51.088;6.572;2023-03-12T06:37:58;100309.59;;;4.21;68.38
48244;BME280;34053;51.088;6.572;2023-03-12T06:40:29;100302.66;;;4.20;68.02
48244;BME280;34053;51.088;6.572;2023-03-12T06:42:59;100318.28;;;4.17;69.11
48244;BME280;34053;51.088;6.572;2023-03-12T06:45:29;100322.56;;;4.24;68.68
48244;BME280;34053;51.088;6.572;2023-03-12T06:48:00;100320.84;;;4.23;68.67
48244;BME280;34053;51.088;6.572;2023-03-12T06:50:30;100315.69;;;4.14;69.14
48244;BME280;34053;51.088;6.572;2023-03-12T06:53:03;100322.56;;;4.22;68.74
48244;BME280;34053;51.088;6.572;2023-03-12T06:55:33;100329.63;;;4.02;69.51
48244;BME280;34053;51.088;6.572;2023-03-12T06:58:04;100317.44;;;4.15;69.08
48244;BME280;34053;51.088;6.572;2023-03-12T07:00:35;100320.09;;;4.05;70.05
48244;BME280;34053;51.088;6.572;2023-03-12T07:03:06;100315.72;;;4.12;69.71
48244;BME280;34053;51.088;6.572;2023-03-12T07:05:36;100308.75;;;4.17;68.95
48244;BME280;34053;51.088;6.572;2023-03-12T07:08:07;100310.50;;;4.17;68.77
48244;BME280;34053;51.088;6.572;2023-03-12T07:10:37;100315.66;;;4.20;69.05
48244;BME280;34053;51.088;6.572;2023-03-12T07:13:08;100313.00;;;4.28;68.67
48244;BME280;34053;51.088;6.572;2023-03-12T07:15:39;100313.88;;;4.27;68.42
48244;BME280;34053;51.088;6.572;2023-03-12T07:18:10;100314.72;;;4.27;68.68
48244;BME280;34053;51.088;6.572;2023-03-12T07:20:42;100311.28;;;4.30;68.73
48244;BME280;34053;51.088;6.572;2023-03-12T07:23:12;100318.22;;;4.28;68.75
48244;BME280;34053;51.088;6.572;2023-03-12T07:25:43;100315.56;;;4.31;68.99
48244;BME280;34053;51.088;6.572;2023-03-12T07:28:15;100307.81;;;4.26;69.38
48244;BME280;34053;51.088;6.572;2023-03-12T07:30:46;100308.69;;;4.27;69.17
48244;BME280;34053;51.088;6.572;2023-03-12T07:33:20;100301.66;;;4.39;69.09
48244;BME280;34053;51.088;6.572;2023-03-12T07:35:50;100303.44;;;4.33;69.21
48244;BME280;34053;51.088;6.572;2023-03-12T07:38:21;100300.94;;;4.22;70.01
48244;BME280;34053;51.088;6.572;2023-03-12T07:40:53;100300.94;;;4.20;70.78
48244;BME280;34053;51.088;6.572;2023-03-12T07:43:24;100308.63;;;4.36;70.14
48244;BME280;34053;51.088;6.572;2023-03-12T07:45:55;100309.50;;;4.33;70.52
48244;BME280;34053;51.088;6.572;2023-03-12T07:48:25;100309.47;;;4.36;70.62
48244;BME280;34053;51.088;6.572;2023-03-12T07:50:56;100302.53;;;4.38;70.79
48244;BME280;34053;51.088;6.572;2023-03-12T07:53:26;100308.59;;;4.40;70.65
48244;BME280;34053;51.088;6.572;2023-03-12T07:55:57;100313.75;;;4.45;70.46
48244;BME280;34053;51.088;6.572;2023-03-12T07:58:27;100318.97;;;4.40;71.38
48244;BME280;34053;51.088;6.572;2023-03-12T08:00:58;100313.66;;;4.53;70.83
48244;BME280;34053;51.088;6.572;2023-03-12T08:03:28;100311.88;;;4.56;70.59
48244;BME280;34053;51.088;6.572;2023-03-12T08:06:02;100311.09;;;4.50;72.38
48244;BME280;34053;51.088;6.572;2023-03-12T08:08:33;100309.31;;;4.58;71.97
48244;BME280;34053;51.088;6.572;2023-03-12T08:11:05;100312.75;;;4.59;72.35
48244;BME280;34053;51.088;6.572;2023-03-12T08:13:35;100308.38;;;4.65;71.66
48244;BME280;34053;51.088;6.572;2023-03-12T08:16:06;100312.63;;;4.69;72.89
48244;BME280;34053;51.088;6.572;2023-03-12T08:18:36;100317.75;;;4.79;71.73
48244;BME280;34053;51.088;6.572;2023-03-12T08:21:07;100315.25;;;4.71;73.44
48244;BME280;34053;51.088;6.572;2023-03-12T08:23:37;100316.91;;;4.78;73.63
48244;BME280;34053;51.088;6.572;2023-03-12T08:26:08;100306.53;;;4.75;74.52
48244;BME280;34053;51.088;6.572;2023-03-12T08:28:38;100312.53;;;4.82;75.98
48244;BME280;34053;51.088;6.572;2023-03-12T08:31:09;100306.38;;;4.91;72.72
48244;BME280;34053;51.088;6.572;2023-03-12T08:33:40;100308.94;;;4.94;74.15
48244;BME280;34053;51.088;6.572;2023-03-12T08:36:12;100303.78;;;4.89;75.43
48244;BME280;34053;51.088;6.572;2023-03-12T08:38:43;100299.44;;;4.91;75.25
48244;BME280;34053;51.088;6.572;2023-03-12T08:41:13;100303.75;;;4.92;75.66
48244;BME280;34053;51.088;6.572;2023-03-12T08:43:44;100288.97;;;4.97;76.66
48244;BME280;34053;51.088;6.572;2023-03-12T08:46:14;100288.81;;;5.13;73.39
48244;BME280;34053;51.088;6.572;2023-03-12T08:48:45;100289.66;;;5.13;75.67
48244;BME280;34053;51.088;6.572;2023-03-12T08:51:15;100287.03;;;5.16;74.12
48244;BME280;34053;51.088;6.572;2023-03-12T08:53:46;100290.56;;;5.12;77.14
48244;BME280;34053;51.088;6.572;2023-03-12T08:56:17;100299.06;;;5.24;74.38
48244;BME280;34053;51.088;6.572;2023-03-12T08:58:47;100295.56;;;5.26;74.03
48244;BME280;34053;51.088;6.572;2023-03-12T09:01:17;100289.56;;;5.24;74.88
48244;BME280;34053;51.088;6.572;2023-03-12T09:03:48;100295.56;;;5.26;75.57
48244;BME280;34053;51.088;6.572;2023-03-12T09:06:20;100300.03;;;5.16;78.91
48244;BME280;34053;51.088;6.572;2023-03-12T09:08:50;100304.28;;;5.24;76.81
48244;BME280;34053;51.088;6.572;2023-03-12T09:11:21;100299.03;;;5.28;77.25
48244;BME280;34053;51.088;6.572;2023-03-12T09:13:51;100299.00;;;5.30;77.92
48244;BME280;34053;51.088;6.572;2023-03-12T09:16:22;100302.41;;;5.33;76.22
48244;BME280;34053;51.088;6.572;2023-03-12T09:18:52;100298.97;;;5.33;77.63
48244;BME280;34053;51.088;6.572;2023-03-12T09:21:23;100305.78;;;5.42;78.13
48244;BME280;34053;51.088;6.572;2023-03-12T09:23:53;100301.47;;;5.42;78.69
48244;BME280;34053;51.088;6.572;2023-03-12T09:26:24;100304.06;;;5.42;78.30
48244;BME280;34053;51.088;6.572;2023-03-12T09:28:54;100298.81;;;5.44;78.83
48244;BME280;34053;51.088;6.572;2023-03-12T09:31:27;100295.34;;;5.45;78.44
48244;BME280;34053;51.088;6.572;2023-03-12T09:33:57;100304.78;;;5.55;76.61
48244;BME280;34053;51.088;6.572;2023-03-12T09:36:28;100304.84;;;5.49;79.29
48244;BME280;34053;51.088;6.572;2023-03-12T09:38:58;100297.88;;;5.53;79.00
48244;BME280;34053;51.088;6.572;2023-03-12T09:41:33;100309.19;;;5.48;82.54
48244;BME280;34053;51.088;6.572;2023-03-12T09:46:51;100306.53;;;5.53;81.90
48244;BME280;34053;51.088;6.572;2023-03-12T09:49:39;100301.22;;;5.61;80.46
48244;BME280;34053;51.088;6.572;2023-03-12T09:52:24;100306.41;;;5.62;81.94
48244;BME280;34053;51.088;6.572;2023-03-12T09:57:47;100295.13;;;5.63;82.36
48244;BME280;34053;51.088;6.572;2023-03-12T10:00:19;100295.03;;;5.70;81.82
48244;BME280;34053;51.088;6.572;2023-03-12T10:03:13;100302.78;;;5.74;82.48
48244;BME280;34053;51.088;6.572;2023-03-12T10:06:05;100301.09;;;5.68;85.79
48244;BME280;34053;51.088;6.572;2023-03-12T10:14:25;100296.59;;;5.81;83.11
48244;BME280;34053;51.088;6.572;2023-03-12T10:24:55;100307.66;;;5.99;92.25
48244;BME280;34053;51.088;6.572;2023-03-12T10:27:33;100310.09;;;6.11;95.38
48244;BME280;34053;51.088;6.572;2023-03-12T10:30:17;100308.19;;;6.21;96.06
48244;BME280;34053;51.088;6.572;2023-03-12T10:33:01;100297.56;;;6.34;96.40
48244;BME280;34053;51.088;6.572;2023-03-12T10:35:33;100311.25;;;6.46;97.92
48244;BME280;34053;51.088;6.572;2023-03-12T10:38:09;100312.06;;;6.50;97.96
48244;BME280;34053;51.088;6.572;2023-03-12T10:40:43;100313.59;;;6.64;98.90
48244;BME280;34053;51.088;6.572;2023-03-12T10:43:13;100319.56;;;6.69;99.24
48244;BME280;34053;51.088;6.572;2023-03-12T10:45:57;100316.00;;;6.74;99.58
48244;BME280;34053;51.088;6.572;2023-03-12T10:48:31;100318.47;;;6.82;99.43
48244;BME280;34053;51.088;6.572;2023-03-12T10:51:10;100319.19;;;6.90;99.90
48244;BME280;34053;51.088;6.572;2023-03-12T10:53:42;100320.03;;;6.92;100.00
48244;BME280;34053;51.088;6.572;2023-03-12T10:56:20;100323.41;;;6.98;100.00
48244;BME280;34053;51.088;6.572;2023-03-12T10:58:52;100327.69;;;7.02;100.00
48244;BME280;34053;51.088;6.572;2023-03-12T11:01:25;100322.34;;;7.08;100.00
48244;BME280;34053;51.088;6.572;2023-03-12T11:07:03;100320.38;;;7.19;100.00
48244;BME280;34053;51.088;6.572;2023-03-12T11:09:34;100329.06;;;7.21;100.00
48244;BME280;34053;51.088;6.572;2023-03-12T11:12:28;100324.47;;;7.33;100.00
48244;BME280;34053;51.088;6.572;2023-03-12T11:15:20;100326.13;;;7.37;100.00
48244;BME280;34053;51.088;6.572;2023-03-12T11:17:51;100322.66;;;7.38;100.00
48244;BME280;34053;51.088;6.572;2023-03-12T11:20:31;100318.13;;;7.45;100.00
48244;BME280;34053;51.088;6.572;2023-03-12T11:23:19;100312.81;;;7.49;100.00
48244;BME280;34053;51.088;6.572;2023-03-12T11:28:37;100313.41;;;7.64;100.00
48244;BME280;34053;51.088;6.572;2023-03-12T11:31:14;100311.50;;;7.70;100.00
48244;BME280;34053;51.088;6.572;2023-03-12T11:33:50;100311.41;;;7.75;100.00
48244;BME280;34053;51.088;6.572;2023-03-12T11:50:33;100308.78;;;8.14;100.00
48244;BME280;34053;51.088;6.572;2023-03-12T12:16:56;100298.94;;;8.62;99.59
48244;BME280;34053;51.088;6.572;2023-03-12T12:19:34;100302.38;;;8.64;98.86
48244;BME280;34053;51.088;6.572;2023-03-12T12:30:20;100301.06;;;8.80;97.72
48244;BME280;34053;51.088;6.572;2023-03-12T12:35:33;100295.47;;;8.94;96.82
48244;BME280;34053;51.088;6.572;2023-03-12T12:38:13;100283.09;;;9.01;96.57
48244;BME280;34053;51.088;6.572;2023-03-12T12:40:50;100278.50;;;9.09;95.97
48244;BME280;34053;51.088;6.572;2023-03-12T12:46:05;100280.03;;;9.17;94.62
48244;BME280;34053;51.088;6.572;2023-03-12T12:51:30;100280.75;;;9.22;94.29
48244;BME280;34053;51.088;6.572;2023-03-12T13:00:42;100261.41;;;9.27;93.95
48244;BME280;34053;51.088;6.572;2023-03-12T13:02:46;100260.38;;;9.33;93.89
48244;BME280;34053;51.088;6.572;2023-03-12T13:05:25;100259.41;;;9.36;93.62
48244;BME280;34053;51.088;6.572;2023-03-12T13:07:55;100259.34;;;9.39;93.33
48244;BME280;34053;51.088;6.572;2023-03-12T13:13:23;100256.31;;;9.53;91.71
48244;BME280;34053;51.088;6.572;2023-03-12T13:32:09;100232.16;;;10.00;85.81
48244;BME280;34053;51.088;6.572;2023-03-12T13:46:04;100228.50;;;10.31;81.92
48244;BME280;34053;51.088;6.572;2023-03-12T13:48:35;100224.06;;;10.33;80.86
48244;BME280;34053;51.088;6.572;2023-03-12T13:51:20;100224.09;;;10.31;80.73
48244;BME280;34053;51.088;6.572;2023-03-12T13:53:55;100222.19;;;10.36;81.02
48244;BME280;34053;51.088;6.572;2023-03-12T13:56:30;100209.25;;;10.32;78.92
48244;BME280;34053;51.088;6.572;2023-03-12T13:59:06;100216.16;;;10.34;79.85
48244;BME280;34053;51.088;6.572;2023-03-12T14:01:45;100206.56;;;10.33;79.52
48244;BME280;34053;51.088;6.572;2023-03-12T14:04:29;100215.31;;;10.32;79.06
48244;BME280;34053;51.088;6.572;2023-03-12T14:15:23;100199.69;;;10.29;78.73
48244;BME280;34053;51.088;6.572;2023-03-12T14:18:03;100200.63;;;10.28;76.95
48244;BME280;34053;51.088;6.572;2023-03-12T14:20:50;100205.00;;;10.28;77.78
48244;BME280;34053;51.088;6.572;2023-03-12T14:23:26;100212.84;;;10.28;77.50
48244;BME280;34053;51.088;6.572;2023-03-12T14:26:01;100209.50;;;10.24;76.43
48244;BME280;34053;51.088;6.572;2023-03-12T14:28:38;100208.59;;;10.25;76.64
48244;BME280;34053;51.088;6.572;2023-03-12T14:31:16;100197.03;;;10.31;76.53
48244;BME280;34053;51.088;6.572;2023-03-12T14:36:44;100216.22;;;10.31;75.46
48244;BME280;34053;51.088;6.572;2023-03-12T14:39:41;100226.69;;;10.33;74.35
48244;BME280;34053;51.088;6.572;2023-03-12T14:42:26;100234.56;;;10.33;73.71
48244;BME280;34053;51.088;6.572;2023-03-12T14:47:41;100240.66;;;10.33;71.63
48244;BME280;34053;51.088;6.572;2023-03-12T14:50:17;100244.19;;;10.32;72.38
48244;BME280;34053;51.088;6.572;2023-03-12T14:52:49;100258.91;;;10.36;72.98
48244;BME280;34053;51.088;6.572;2023-03-12T14:55:24;100250.50;;;10.53;72.86
48244;BME280;34053;51.088;6.572;2023-03-12T14:58:02;100244.88;;;10.64;72.51
48244;BME280;34053;51.088;6.572;2023-03-12T15:00:33;100241.91;;;10.74;73.18
48244;BME280;34053;51.088;6.572;2023-03-12T15:03:11;100249.78;;;10.74;73.48
48244;BME280;34053;51.088;6.572;2023-03-12T15:05:47;100250.66;;;10.74;72.87
48244;BME280;34053;51.088;6.572;2023-03-12T15:08:18;100250.44;;;10.80;72.66
48244;BME280;34053;51.088;6.572;2023-03-12T15:10:53;100243.41;;;10.81;72.94
48244;BME280;34053;51.088;6.572;2023-03-12T15:13:25;100245.13;;;10.82;72.95
48244;BME280;34053;51.088;6.572;2023-03-12T15:15:56;100248.22;;;10.93;71.09
48244;BME280;34053;51.088;6.572;2023-03-12T15:18:28;100256.88;;;10.95;71.51
48244;BME280;34053;51.088;6.572;2023-03-12T15:21:01;100265.56;;;10.97;71.00
48244;BME280;34053;51.088;6.572;2023-03-12T15:23:33;100269.22;;;10.93;70.26
48244;BME280;34053;51.088;6.572;2023-03-12T15:28:39;100243.19;;;10.87;70.23
48244;BME280;34053;51.088;6.572;2023-03-12T15:31:14;100247.66;;;10.85;69.50
48244;BME280;34053;51.088;6.572;2023-03-12T15:34:02;100252.94;;;10.83;68.28
48244;BME280;34053;51.088;6.572;2023-03-12T15:36:33;100248.56;;;10.84;68.99
48244;BME280;34053;51.088;6.572;2023-03-12T15:42:18;100253.16;;;10.77;67.73
48244;BME280;34053;51.088;6.572;2023-03-12T15:44:52;100244.53;;;10.74;67.94
48244;BME280;34053;51.088;6.572;2023-03-12T15:47:25;100255.94;;;10.73;67.01
48244;BME280;34053;51.088;6.572;2023-03-12T15:50:06;100261.91;;;10.78;67.84
48244;BME280;34053;51.088;6.572;2023-03-12T15:52:39;100270.72;;;10.75;67.83